Time;durP1;ratioP1;P1;durP2;ratioP2;P2;SDS_P1;SDS_P2;PMS_P1;PMS_P2;Temp;Humidity;BMP_temperature;BMP_pressure;BME280_temperature;BME280_humidity;BME280_pressure;Samples;Min_cycle;Max_cycle;Signal;HPM_P1;HPM_P2
2021/12/29 00:01:18;;;;;;;9.48;4.47;;;;;;;0.57;100.00;91623.72;4912016;28;20103;-91
2021/12/29 00:07:25;;;;;;;9.85;4.63;;;;;;;0.48;99.13;91611.53;4898056;29;20100;-90
2021/12/29 00:10:54;;;;;;;9.15;4.32;;;;;;;0.38;98.46;91614.78;4901395;29;20530;-91
2021/12/29 00:14:03;;;;;;;;;;;;;;;;;;;;;
2021/12/29 00:17:16;;;;;;;;;;;;;;;;;;;;;
2021/12/29 00:20:14;;;;;;;;;;;;;;;;;;;;;
2021/12/29 00:22:57;;;;;;;7.53;4.15;;;;;;;0.44;98.36;91600.94;4888326;29;20092;-91
2021/12/29 00:26:00;;;;;;;;;;;;;;;;;;;;;
2021/12/29 00:29:20;;;;;;;8.45;4.30;;;;;;;0.65;98.85;91617.31;4900513;29;20036;-91
2021/12/29 00:32:28;;;;;;;7.22;4.00;;;;;;;0.73;98.12;91613.53;4899299;29;20048;-91
2021/12/29 00:35:53;;;;;;;10.52;4.72;;;;;;;0.60;98.23;91602.59;4878747;29;20147;-92
2021/12/29 00:38:58;;;;;;;9.65;4.68;;;;;;;0.75;98.24;91619.97;4889588;29;20047;-91
2021/12/29 00:42:17;;;;;;;10.05;4.35;;;;;;;1.03;98.34;91652.38;4887285;29;20124;-91
2021/12/29 00:45:50;;;;;;;;;;;;;;;;;;;;;
2021/12/29 00:49:03;;;;;;;8.30;4.03;;;;;;;0.75;97.96;91632.09;4883530;29;20041;-91
2021/12/29 00:52:38;;;;;;;8.43;4.18;;;;;;;1.08;97.85;91676.63;4894467;29;20092;-90
2021/12/29 00:55:44;;;;;;;;;;;;;;;;;;;;;
2021/12/29 00:59:01;;;;;;;7.47;4.03;;;;;;;0.75;97.15;91632.88;4894574;29;20511;-91
2021/12/29 01:01:42;;;;;;;8.13;3.20;;;;;;;0.64;97.61;91615.00;4881323;29;20072;-90
2021/12/29 01:04:54;;;;;;;8.55;2.90;;;;;;;1.10;97.27;91674.59;4875699;29;20444;-91
2021/12/29 01:07:55;;;;;;;;;;;;;;;;;;;;;
2021/12/29 01:10:52;;;;;;;5.93;3.10;;;;;;;0.85;97.11;91659.72;4876772;29;20057;-91
2021/12/29 01:17:43;;;;;;;5.35;2.60;;;;;;;1.18;96.31;91699.91;4872834;29;20049;-92
2021/12/29 01:21:11;;;;;;;;;;;;;;;;;;;;;
2021/12/29 01:24:07;;;;;;;5.63;2.80;;;;;;;0.80;96.79;91658.66;4900350;29;20040;-91
2021/12/29 01:26:52;;;;;;;5.22;3.10;;;;;;;0.96;96.30;91674.22;4885122;29;20046;-90
2021/12/29 01:29:28;;;;;;;5.97;3.28;;;;;;;0.87;96.11;91666.19;4883957;29;20518;-90
2021/12/29 01:32:01;;;;;;;6.43;2.97;;;;;;;0.94;95.87;91674.47;4852956;29;20506;-91
2021/12/29 01:35:22;;;;;;;;;;;;;;;;;;;;;
2021/12/29 01:38:16;;;;;;;6.80;3.42;;;;;;;0.65;96.26;91640.50;4883452;29;20048;-90
2021/12/29 01:41:15;;;;;;;6.18;2.78;;;;;;;0.85;96.17;91683.69;4885877;29;20045;-91
2021/12/29 01:44:08;;;;;;;6.35;3.05;;;;;;;1.01;96.45;91713.72;4886006;29;20092;-92
2021/12/29 01:47:06;;;;;;;6.03;2.92;;;;;;;0.89;96.33;91700.22;4884728;29;20043;-91
2021/12/29 01:50:09;;;;;;;5.60;3.00;;;;;;;0.79;96.63;91679.53;4860217;29;20414;-90
2021/12/29 01:56:10;;;;;;;4.90;2.45;;;;;;;0.59;96.23;91662.09;4896821;29;20052;-90
2021/12/29 01:59:31;;;;;;;4.85;2.80;;;;;;;0.62;96.01;91667.53;4884341;29;20510;-91
2021/12/29 02:02:27;;;;;;;4.45;2.13;;;;;;;0.60;95.83;91656.69;4884950;29;20100;-91
2021/12/29 02:05:10;;;;;;;6.30;2.88;;;;;;;0.60;95.91;91651.53;4883537;29;20040;-91
2021/12/29 02:08:22;;;;;;;;;;;;;;;;;;;;;
2021/12/29 02:11:25;;;;;;;;;;;;;;;;;;;;;
2021/12/29 02:14:18;;;;;;;3.88;2.38;;;;;;;0.94;96.18;91710.56;4899894;29;20045;-90
2021/12/29 02:20:30;;;;;;;5.82;3.10;;;;;;;0.70;96.27;91657.78;4877853;29;20056;-91
2021/12/29 02:26:44;;;;;;;4.60;2.55;;;;;;;0.82;96.11;91684.19;4885274;29;20067;-91
2021/12/29 02:29:52;;;;;;;;;;;;;;;;;;;;;
2021/12/29 02:33:02;;;;;;;6.65;3.33;;;;;;;1.10;95.52;91720.97;4895054;29;20096;-92
2021/12/29 02:36:11;;;;;;;8.20;3.22;;;;;;;1.16;95.67;91730.31;4873144;29;20104;-90
2021/12/29 02:39:04;;;;;;;5.78;2.50;;;;;;;1.04;95.14;91715.03;4868222;29;20037;-90
2021/12/29 02:41:59;;;;;;;4.68;2.35;;;;;;;0.88;95.53;91687.56;4879441;29;20055;-91
2021/12/29 02:45:23;;;;;;;4.20;2.25;;;;;;;1.19;95.57;91734.97;4866963;29;20037;-90
2021/12/29 02:49:02;;;;;;;4.50;1.90;;;;;;;0.77;94.85;91666.88;4863747;29;20059;-91
2021/12/29 02:52:24;;;;;;;4.88;2.45;;;;;;;1.17;94.98;91722.34;4867503;29;20037;-92
2021/12/29 02:55:27;;;;;;;;;;;;;;;;;;;;;
2021/12/29 02:58:45;;;;;;;6.55;3.35;;;;;;;1.29;96.06;91693.03;4880832;29;20415;-91
2021/12/29 03:01:51;;;;;;;;;;;;;;;;;;;;;
2021/12/29 03:04:58;;;;;;;6.90;3.58;;;;;;;1.25;95.50;91669.53;4854217;29;20049;-92
2021/12/29 03:08:05;;;;;;;;;;;;;;;;;;;;;
2021/12/29 03:11:36;;;;;;;7.68;3.45;;;;;;;1.31;94.93;91699.47;4868437;29;20125;-91
2021/12/29 03:14:31;;;;;;;;;;;;;;;;;;;;;
2021/12/29 03:17:30;;;;;;;5.15;2.80;;;;;;;1.10;94.21;91646.22;4870964;29;20053;-91
2021/12/29 03:21:15;;;;;;;6.00;2.70;;;;;;;1.41;94.18;91699.53;4856223;29;20132;-90
2021/12/29 03:24:21;;;;;;;4.10;2.00;;;;;;;1.28;92.73;91658.72;4867620;29;20049;-90
2021/12/29 03:30:37;;;;;;;;;;;;;;;;;;;;;
2021/12/29 03:33:16;;;;;;;3.22;1.75;;;;;;;1.35;91.23;91667.03;4901902;29;20041;-89
2021/12/29 03:36:12;;;;;;;3.08;1.67;;;;;;;1.40;90.98;91663.69;4902823;29;20058;-90
2021/12/29 03:38:59;;;;;;;5.10;2.42;;;;;;;1.71;89.20;91698.13;4878428;29;20061;-90
2021/12/29 03:41:59;;;;;;;4.60;2.30;;;;;;;1.57;89.34;91666.09;4852721;29;20045;-91
2021/12/29 03:44:58;;;;;;;;;;;;;;;;;;;;;
2021/12/29 03:48:02;;;;;;;2.90;1.40;;;;;;;1.79;87.96;91687.34;4867890;29;20061;-91
2021/12/29 03:50:55;;;;;;;2.15;1.20;;;;;;;1.87;87.43;91701.59;4863372;29;20148;-91
2021/12/29 03:54:05;;;;;;;;;;;;;;;;;;;;;
2021/12/29 03:57:09;;;;;;;1.15;0.82;;;;;;;1.91;81.35;91663.91;4869180;29;20394;-91
2021/12/29 04:00:12;;;;;;;0.50;0.50;;;;;;;2.42;80.70;91726.03;4871527;29;20045;-91
2021/12/29 04:03:20;;;;;;;;;;;;;;;;;;;;;
2021/12/29 04:09:31;;;;;;;1.63;0.93;;;;;;;2.73;78.34;91720.94;4890771;29;20044;-91
2021/12/29 04:12:18;;;;;;;6.15;2.70;;;;;;;2.78;78.15;91728.69;4870209;29;20047;-91
2021/12/29 04:15:19;;;;;;;;;;;;;;;2.90;77.11;91718.09;4887112;29;20059;-90
2021/12/29 04:17:58;;;;;;;1.60;1.05;;;;;;;2.64;76.26;91670.81;4884270;29;19915;-92
2021/12/29 04:21:10;;;;;;;;;;;;;;;;;;;;;
2021/12/29 04:24:18;;;;;;;0.50;0.50;;;;;;;2.94;74.30;91671.84;4860602;29;20040;-91
2021/12/29 04:27:22;;;;;;;0.57;0.50;;;;;;;3.08;73.50;91680.63;4870192;29;20047;-92
2021/12/29 04:30:20;;;;;;;;;;;;;;;;;;;;;
2021/12/29 04:36:58;;;;;;;;;;;;;;;;;;;;;
2021/12/29 04:39:50;;;;;;;0.50;0.50;;;;;;;3.26;71.82;91697.44;4871713;29;20052;-91
2021/12/29 04:43:19;;;;;;;;;;;;;;;;;;;;;
2021/12/29 04:46:17;;;;;;;;;;;;;;;;;;;;;
2021/12/29 04:49:27;;;;;;;0.93;0.52;;;;;;;3.58;68.12;91715.25;4900911;29;20100;-91
2021/12/29 04:52:25;;;;;;;0.88;0.77;;;;;;;3.25;69.49;91670.03;4886055;29;20047;-91
2021/12/29 04:55:45;;;;;;;0.70;0.70;;;;;;;3.66;69.90;91739.81;4868862;29;20063;-91
2021/12/29 04:58:52;;;;;;;;;;;;;;;;;;;;;
2021/12/29 05:02:10;;;;;;;0.70;0.55;;;;;;;3.28;68.48;91680.59;4854240;29;20114;-90
2021/12/29 05:05:37;;;;;;;;;;;;;;;;;;;;;
2021/12/29 05:11:51;;;;;;;0.60;0.60;;;;;;;3.46;66.91;91691.44;4895324;29;20048;-91
2021/12/29 05:14:59;;;;;;;;;;;;;;;;;;;;;
2021/12/29 05:17:54;;;;;;;;;;;;;;;;;;;;;
2021/12/29 05:20:57;;;;;;;0.82;0.68;;;;;;;3.71;67.56;91766.47;4869403;29;20045;-92
2021/12/29 05:26:55;;;;;;;2.35;1.00;;;;;;;3.94;65.55;91713.34;4853737;29;20518;-90
2021/12/29 05:29:38;;;;;;;2.20;1.17;;;;;;;3.98;66.88;91755.00;4852525;29;20043;-91
2021/12/29 05:32:39;;;;;;;1.58;1.00;;;;;;;3.73;68.33;91735.13;4854660;29;20051;-91
2021/12/29 05:35:28;;;;;;;;;;;;;;;;;;;;;
2021/12/29 05:41:11;;;;;;;1.38;0.95;;;;;;;3.48;70.14;91739.31;4863180;29;20075;-91
2021/12/29 05:48:01;;;;;;;;;;;;;;;;;;;;;
2021/12/29 05:51:00;;;;;;;1.92;1.15;;;;;;;3.27;70.93;91733.38;4864518;29;20100;-91
2021/12/29 05:54:06;;;;;;;3.88;1.30;;;;;;;3.26;71.20;91731.81;4867517;29;20049;-91
2021/12/29 05:57:02;;;;;;;;;;;;;;;;;;;;;
2021/12/29 06:00:02;;;;;;;1.52;1.08;;;;;;;3.50;71.55;91783.81;4868916;29;20052;-91
2021/12/29 06:02:43;;;;;;;2.30;1.20;;;;;;;3.34;71.75;91771.94;4871554;29;20052;-91
2021/12/29 06:05:33;;;;;;;;;;;;;;;;;;;;;
2021/12/29 06:08:30;;;;;;;1.13;0.88;;;;;;;3.25;71.01;91789.00;4899435;29;20055;-91
2021/12/29 06:15:11;;;;;;;;;;;;;;;;;;;;;
2021/12/29 06:18:10;;;;;;;0.98;0.77;;;;;;;3.28;69.42;91767.78;4899101;29;20044;-91
2021/12/29 06:21:16;;;;;;;0.88;0.80;;;;;;;3.23;68.77;91754.84;4883003;29;20368;-92
2021/12/29 06:24:48;;;;;;;;;;;;;;;;;;;;;
2021/12/29 06:31:22;;;;;;;1.67;0.95;;;;;;;3.37;67.28;91761.06;4872849;29;20055;-91
2021/12/29 06:34:08;;;;;;;0.73;0.73;;;;;;;3.48;66.94;91772.94;4876904;29;20049;-92
2021/12/29 06:37:02;;;;;;;1.05;0.90;;;;;;;3.66;66.59;91783.81;4880546;29;20041;-88
2021/12/29 06:40:04;;;;;;;1.33;0.80;;;;;;;3.61;65.59;91748.38;4861053;29;20055;-89
2021/12/29 06:42:50;;;;;;;1.00;0.73;;;;;;;3.64;65.75;91760.78;4885990;29;20055;-87
2021/12/29 06:45:26;;;;;;;2.92;0.90;;;;;;;3.67;64.68;91751.72;4897687;29;20100;-88
2021/12/29 06:48:02;;;;;;;1.08;0.70;;;;;;;3.85;63.75;91763.31;4898608;29;20060;-87
2021/12/29 06:50:53;;;;;;;;;;;;;;;;;;;;;
2021/12/29 06:53:32;;;;;;;0.65;0.60;;;;;;;4.31;63.39;91800.25;4899242;29;20044;-88
2021/12/29 06:56:48;;;;;;;1.17;0.77;;;;;;;4.13;63.51;91782.69;4866843;29;20043;-90
2021/12/29 06:59:49;;;;;;;0.60;0.60;;;;;;;4.14;62.96;91800.59;4884294;29;20048;-87
2021/12/29 07:02:17;;;;;;;0.93;0.57;;;;;;;3.96;62.05;91764.84;4866653;29;20510;-87
2021/12/29 07:04:53;;;;;;;1.45;0.75;;;;;;;4.38;62.70;91837.03;4892911;29;20043;-87
2021/12/29 07:07:32;;;;;;;1.42;0.80;;;;;;;4.09;63.10;91792.03;4923477;28;20080;-92
2021/12/29 07:10:01;;;;;;;0.80;0.60;;;;;;;4.04;63.05;91792.06;4925482;28;20028;-91
2021/12/29 07:12:39;;;;;;;1.63;0.77;;;;;;;4.08;62.86;91795.69;4879248;29;20037;-88
2021/12/29 07:15:24;;;;;;;1.02;0.77;;;;;;;4.13;61.93;91787.88;4899385;29;20111;-91
2021/12/29 07:20:57;;;;;;;3.40;1.65;;;;;;;4.33;62.19;91812.97;4883360;29;20549;-87
2021/12/29 07:23:58;;;;;;;1.15;0.85;;;;;;;4.50;62.12;91828.97;4881547;29;20124;-88
2021/12/29 07:27:05;;;;;;;;;;;;;;;;;;;;;
2021/12/29 07:30:39;;;;;;;9.15;4.03;;;;;;;4.97;60.55;91832.16;4890872;29;20414;-91
2021/12/29 07:34:03;;;;;;;2.22;1.27;;;;;;;5.52;59.78;91826.91;4911387;29;20085;-91
2021/12/29 07:37:12;;;;;;;3.80;1.90;;;;;;;5.94;58.08;91828.91;4898377;29;20475;-91
2021/12/29 07:40:34;;;;;;;2.00;1.20;;;;;;;7.07;57.00;91887.59;4897164;29;20607;-90
2021/12/29 07:43:50;;;;;;;;;;;;;;;;;;;;;
2021/12/29 07:46:59;;;;;;;;;;;;;;;;;;;;;
2021/12/29 07:50:25;;;;;;;1.40;1.10;;;;;;;9.28;48.21;91854.34;4889851;29;20048;-91
2021/12/29 07:53:10;;;;;;;0.65;0.60;;;;;;;8.88;48.73;91808.94;4873116;29;20052;-89
2021/12/29 07:56:06;;;;;;;2.40;0.98;;;;;;;8.84;49.93;91845.28;4896826;29;20519;-89
2021/12/29 08:07:19;;;;;;;;;;;;;;;;;;;;;
2021/12/29 08:14:35;;;;;;;;;;;;;;;;;;;;;
2021/12/29 08:21:30;;;;;;;;;;;;;;;;;;;;;
2021/12/29 08:32:12;;;;;;;1.27;0.80;;;;;;;13.56;38.44;91905.88;4737920;30;20083;-89
2021/12/29 08:38:44;;;;;;;1.05;0.77;;;;;;;16.52;31.10;91929.09;4737597;30;20514;-89
2021/12/29 08:41:15;;;;;;;1.23;0.70;;;;;;;16.86;29.82;91927.75;4765247;30;20100;-88
2021/12/29 08:44:21;;;;;;;;;;;;;;;;;;;;;
2021/12/29 08:51:09;;;;;;;0.70;0.60;;;;;;;16.67;28.37;91901.94;4790907;30;20108;-89
2021/12/29 08:58:07;;;;;;;;;;;;;;;;;;;;;
2021/12/29 09:01:04;;;;;;;;;;;;;;;;;;;;;
2021/12/29 09:03:47;;;;;;;1.60;0.90;;;;;;;15.09;33.54;91925.56;4883157;29;20051;-90
2021/12/29 09:06:28;;;;;;;0.60;0.60;;;;;;;13.94;33.88;91901.28;4881991;29;20063;-90
2021/12/29 09:09:06;;;;;;;0.95;0.70;;;;;;;13.57;34.42;91923.94;4883960;29;20041;-89
2021/12/29 09:15:49;;;;;;;1.30;0.70;;;;;;;14.03;37.06;91926.78;4828072;29;20148;-89
2021/12/29 09:22:25;;;;;;;;;;;;;;;;;;;;;
2021/12/29 09:25:33;;;;;;;0.75;0.63;;;;;;;17.03;32.84;91911.59;4865769;29;20045;-89
2021/12/29 09:31:38;;;;;;;1.02;0.55;;;;;;;16.50;29.22;91936.56;4883960;29;20048;-89
2021/12/29 09:34:28;;;;;;;0.65;0.52;;;;;;;15.87;30.51;91931.75;4866248;29;20064;-89
2021/12/29 09:51:52;;;;;;;0.70;0.50;;;;;;;15.73;32.78;91948.69;4898563;29;20052;-88
2021/12/29 09:54:47;;;;;;;;;;;;;;;;;;;;;
2021/12/29 09:57:55;;;;;;;0.98;0.70;;;;;;;15.46;32.80;91944.81;4901078;29;20414;-89
2021/12/29 10:04:28;;;;;;;1.77;0.90;;;;;;;15.46;33.17;91936.91;4861180;29;20144;-89
2021/12/29 10:10:58;;;;;;;;;;;;;;;;;;;;;
2021/12/29 10:13:58;;;;;;;0.65;0.60;;;;;;;14.88;33.67;91936.94;4889215;29;20044;-89
2021/12/29 10:17:21;;;;;;;1.73;0.98;;;;;;;14.89;34.83;91932.44;4874522;29;20398;-89
2021/12/29 10:31:56;;;;;;;;;;;;;;;;;;;;;
2021/12/29 10:49:57;;;;;;;1.52;0.80;;;;;;;13.75;37.84;91972.75;4807705;29;20571;-89
2021/12/29 10:52:55;;;;;;;0.68;0.60;;;;;;;13.75;38.38;91977.22;4850031;29;20060;-90
2021/12/29 10:55:35;;;;;;;;;;;;;;;;;;;;;
2021/12/29 10:58:28;;;;;;;;;;;;;;;13.38;38.63;91963.78;4899971;29;20092;-90
2021/12/29 11:01:38;;;;;;;1.25;0.80;;;;;;;13.30;39.03;91957.47;4885420;29;19927;-90
2021/12/29 11:04:52;;;;;;;0.60;0.60;;;;;;;13.43;39.03;91960.97;4876861;29;20055;-90
2021/12/29 11:07:32;;;;;;;0.50;0.50;;;;;;;12.84;39.90;91913.56;4898221;29;20045;-90
2021/12/29 11:10:28;;;;;;;1.02;0.65;;;;;;;13.06;40.40;91952.75;4898243;29;20110;-89
2021/12/29 11:13:17;;;;;;;;;;;;;;;;;;;;;
2021/12/29 11:16:21;;;;;;;1.17;0.90;;;;;;;12.83;39.98;91946.91;4898611;29;20431;-90
2021/12/29 11:19:11;;;;;;;1.17;0.90;;;;;;;12.66;40.27;91942.47;4883387;29;20036;-89
2021/12/29 11:22:23;;;;;;;;;;;;;;;;;;;;;
2021/12/29 11:29:01;;;;;;;4.40;2.83;;;;;;;12.94;41.30;91959.72;4855410;29;20113;-89
2021/12/29 11:39:15;;;;;;;0.88;0.75;;;;;;;12.91;41.70;91982.13;4881137;29;20053;-90
2021/12/29 11:42:19;;;;;;;;;;;;;;;;;;;;;
2021/12/29 11:45:14;;;;;;;1.48;0.90;;;;;;;12.19;41.49;91931.84;4899700;29;20125;-89
2021/12/29 11:48:14;;;;;;;0.75;0.70;;;;;;;12.15;42.19;91907.31;4882312;29;20494;-90
2021/12/29 11:55:32;;;;;;;1.33;0.82;;;;;;;12.49;42.69;91945.13;4900103;29;20047;-89
2021/12/29 11:58:35;;;;;;;;;;;;;;;;;;;;;
2021/12/29 12:05:42;;;;;;;1.10;0.90;;;;;;;12.52;44.20;91976.00;4874456;29;20064;-90
2021/12/29 12:13:08;;;;;;;1.55;1.00;;;;;;;12.05;42.45;91952.22;4824773;29;20133;-90
2021/12/29 12:23:51;;;;;;;2.35;1.08;;;;;;;11.85;43.79;91956.19;4842692;29;20083;-89
2021/12/29 12:30:26;;;;;;;5.30;0.82;;;;;;;11.57;47.25;91939.91;4814467;29;20052;-89
2021/12/29 12:36:48;;;;;;;0.50;0.50;;;;;;;11.76;48.93;91929.19;4849365;29;20059;-90
2021/12/29 12:39:19;;;;;;;0.50;0.47;;;;;;;11.74;48.96;91932.09;4853026;29;20049;-90
2021/12/29 12:49:19;;;;;;;;;;;;;;;12.63;47.08;91950.97;4892786;29;20435;-90
2021/12/29 12:52:08;;;;;;;0.98;0.77;;;;;;;12.84;46.47;91942.44;4870068;29;20006;-89
2021/12/29 12:54:59;;;;;;;0.60;0.60;;;;;;;13.23;45.53;91936.13;4871174;29;20107;-90
2021/12/29 12:58:15;;;;;;;1.42;0.63;;;;;;;13.11;45.32;91892.13;4867112;29;20044;-90
2021/12/29 13:01:32;;;;;;;1.10;0.60;;;;;;;13.46;45.11;91955.09;4870142;29;20072;-91
2021/12/29 13:07:51;;;;;;;;;;;;;;;;;;;;;
2021/12/29 13:11:07;;;;;;;0.73;0.60;;;;;;;13.81;42.21;91901.56;4863120;29;20602;-90
2021/12/29 13:25:10;;;;;;;;;;;;;;;13.85;43.41;91952.44;4862482;29;20080;-90
2021/12/29 13:28:39;;;;;;;;;;;;;;;;;;;;;
2021/12/29 13:31:42;;;;;;;2.35;0.88;;;;;;;13.93;42.95;91926.06;4866988;29;20049;-90
2021/12/29 13:38:03;;;;;;;1.42;0.98;;;;;;;14.32;41.88;91932.00;4882017;29;20049;-90
2021/12/29 13:41:25;;;;;;;2.55;0.88;;;;;;;14.30;42.24;91892.03;4865810;29;20045;-90
2021/12/29 13:44:39;;;;;;;1.63;1.05;;;;;;;14.12;42.03;91906.44;4869264;29;20386;-90
2021/12/29 13:58:41;;;;;;;0.95;0.73;;;;;;;14.08;43.13;91963.44;4862743;29;20120;-88
2021/12/29 14:01:08;;;;;;;1.10;0.80;;;;;;;13.95;43.41;91965.97;4828894;29;20397;-88
2021/12/29 14:03:35;;;;;;;0.80;0.63;;;;;;;14.26;42.86;91933.25;4860660;29;20053;-87
2021/12/29 14:06:04;;;;;;;1.00;0.82;;;;;;;15.01;42.39;91976.50;4862196;29;20155;-88
2021/12/29 14:08:32;;;;;;;3.40;2.00;;;;;;;15.42;42.13;91970.31;4895066;29;20108;-88
2021/12/29 14:11:05;;;;;;;3.33;1.80;;;;;;;15.51;40.53;91936.69;4885034;29;20041;-87
2021/12/29 14:13:34;;;;;;;2.17;1.20;;;;;;;15.98;38.88;91972.44;4900864;29;20037;-87
2021/12/29 14:16:06;;;;;;;0.88;0.70;;;;;;;16.08;39.67;91953.53;4886278;29;20040;-88
2021/12/29 14:18:46;;;;;;;0.95;0.75;;;;;;;16.00;39.59;91959.69;4885648;29;20486;-88
2021/12/29 14:22:04;;;;;;;0.98;0.70;;;;;;;15.53;39.70;91960.88;4910235;29;20029;-92
2021/12/29 14:24:41;;;;;;;1.40;0.95;;;;;;;14.48;42.69;91934.03;4905578;29;20059;-90
2021/12/29 14:27:09;;;;;;;0.47;0.47;;;;;;;14.37;43.07;91944.94;4920393;29;20045;-88
2021/12/29 14:30:18;;;;;;;0.63;0.57;;;;;;;14.33;42.69;91936.16;4900854;29;20037;-88
2021/12/29 14:33:13;;;;;;;1.75;1.00;;;;;;;14.29;42.69;91985.25;4911301;29;20049;-87
2021/12/29 14:35:54;;;;;;;1.48;1.00;;;;;;;13.53;43.70;91955.38;4896770;29;20092;-87
2021/12/29 14:39:06;;;;;;;0.98;0.80;;;;;;;13.81;43.41;92001.50;4886353;29;20051;-87
2021/12/29 14:41:42;;;;;;;1.63;0.88;;;;;;;13.42;43.24;91953.41;4869758;29;20047;-87
2021/12/29 14:44:45;;;;;;;1.85;1.17;;;;;;;13.00;44.83;91937.47;4887678;29;20051;-88
2021/12/29 14:47:21;;;;;;;1.40;0.98;;;;;;;12.85;45.50;91938.72;4881538;29;20056;-88
2021/12/29 14:50:38;;;;;;;;;;;;;;;;;;;;;
2021/12/29 14:53:36;;;;;;;1.88;1.10;;;;;;;12.86;47.55;92001.47;4886043;29;20053;-88
2021/12/29 14:56:31;;;;;;;;;;;;;;;;;;;;;
2021/12/29 14:59:37;;;;;;;5.32;1.40;;;;;;;12.23;50.30;91953.78;4883698;29;20045;-87
2021/12/29 16:25:43;;;;;;;;;;;;;;;;;;;;;
2021/12/29 17:10:12;;;;;;;;;;;;;;;;;;;;;
2021/12/29 17:13:17;;;;;;;4.78;1.40;;;;;;;8.70;65.81;92021.94;4830594;29;20109;-87
2021/12/29 17:16:35;;;;;;;7.30;4.43;;;;;;;9.04;66.90;92083.53;4828949;29;20178;-87
2021/12/29 17:35:39;;;;;;;2.58;1.20;;;;;;;8.25;72.39;92084.91;4876828;29;20056;-88
2021/12/29 17:46:26;;;;;;;0.85;0.70;;;;;;;8.85;70.43;92128.72;4843316;29;20499;-88
2021/12/29 17:49:12;;;;;;;1.55;0.73;;;;;;;8.72;70.76;92108.56;4838771;29;20076;-87
2021/12/29 17:51:39;;;;;;;2.35;0.90;;;;;;;8.59;71.39;92099.59;4843379;29;20049;-87
2021/12/29 17:54:19;;;;;;;1.83;0.93;;;;;;;8.59;72.43;92093.63;4829275;29;21577;-86
2021/12/29 17:56:59;;;;;;;1.30;0.80;;;;;;;8.51;70.86;92093.19;4862651;29;20065;-87
2021/12/29 17:59:37;;;;;;;1.75;1.00;;;;;;;8.27;72.36;92061.16;4885315;29;20097;-92
2021/12/29 18:02:17;;;;;;;1.50;1.00;;;;;;;8.51;73.71;92108.06;4918886;28;20036;-90
2021/12/29 18:04:48;;;;;;;1.13;0.90;;;;;;;7.98;73.59;92058.66;4910406;29;20064;-87
2021/12/29 18:07:33;;;;;;;0.60;0.60;;;;;;;8.00;72.40;92056.56;4910124;29;20107;-87
2021/12/29 18:10:08;;;;;;;2.63;1.58;;;;;;;7.92;73.33;92063.94;4885956;29;20137;-87
2021/12/29 19:44:38;;;;;;;1.98;1.13;;;;;;;7.17;75.62;92079.31;4882743;29;20063;-91
2021/12/29 19:47:04;;;;;;;2.30;1.10;;;;;;;7.25;75.95;92115.97;4910757;29;20080;-77
2021/12/29 19:49:30;;;;;;;1.85;1.20;;;;;;;7.17;76.33;92111.34;4892080;29;20126;-77
2021/12/29 19:51:57;;;;;;;1.42;0.90;;;;;;;7.13;77.02;92136.34;4913484;29;20048;-77
2021/12/29 19:54:24;;;;;;;9.20;2.78;;;;;;;7.52;75.44;92151.13;4883136;29;20379;-77
2021/12/29 19:56:51;;;;;;;24.50;11.15;;;;;;;7.62;75.99;92161.44;4882787;29;20047;-78
2021/12/29 19:59:17;;;;;;;3.88;2.00;;;;;;;7.50;75.49;92153.25;4867862;29;20227;-77
2021/12/29 20:01:43;;;;;;;1.52;0.85;;;;;;;7.42;75.83;92153.81;4898623;29;20040;-77
2021/12/29 20:04:10;;;;;;;2.47;1.33;;;;;;;7.37;76.62;92159.84;4898999;29;20088;-77
2021/12/29 20:06:36;;;;;;;2.75;1.27;;;;;;;7.36;76.19;92167.94;4899531;29;20060;-78
2021/12/29 20:09:05;;;;;;;0.80;0.80;;;;;;;7.36;76.31;92175.75;4899116;29;20546;-78
2021/12/29 20:11:31;;;;;;;2.80;1.30;;;;;;;7.47;76.57;92182.41;4903037;29;20546;-77
2021/12/29 20:13:56;;;;;;;1.23;0.93;;;;;;;7.40;75.97;92172.31;4881824;29;20112;-77
2021/12/29 20:16:23;;;;;;;1.83;1.08;;;;;;;7.32;76.13;92156.50;4879284;29;20061;-77
2021/12/29 20:18:49;;;;;;;1.42;0.95;;;;;;;7.32;75.90;92166.91;4882584;29;20037;-77
2021/12/29 20:21:18;;;;;;;2.70;1.40;;;;;;;7.29;75.80;92165.63;4899431;29;20036;-77
2021/12/29 20:23:44;;;;;;;1.95;1.10;;;;;;;7.24;76.31;92168.28;4898519;29;20392;-77
2021/12/29 20:26:10;;;;;;;0.73;0.60;;;;;;;7.24;75.75;92140.44;4899160;29;20047;-77
2021/12/29 20:28:40;;;;;;;1.13;0.80;;;;;;;7.37;75.69;92151.28;4899282;29;20033;-77
2021/12/29 20:31:11;;;;;;;2.15;1.20;;;;;;;7.39;75.77;92141.38;4882528;29;20499;-77
2021/12/29 20:33:37;;;;;;;4.80;2.53;;;;;;;7.26;76.14;92187.78;4898705;29;20403;-77
2021/12/29 20:36:03;;;;;;;8.52;3.70;;;;;;;7.21;78.42;92206.06;4898316;29;20032;-77
2021/12/29 20:38:29;;;;;;;17.08;6.28;;;;;;;7.11;78.84;92190.50;4898968;29;20048;-77
2021/12/29 20:40:55;;;;;;;8.25;2.40;;;;;;;7.09;78.01;92203.00;4898186;29;20100;-77
2021/12/29 20:43:21;;;;;;;2.20;1.10;;;;;;;7.06;78.06;92182.75;4898797;29;20047;-77
2021/12/29 20:45:48;;;;;;;2.65;1.35;;;;;;;7.04;78.66;92171.81;4877955;29;20061;-77
2021/12/29 20:48:14;;;;;;;1.35;0.80;;;;;;;7.04;78.29;92167.38;4880204;29;20053;-77
2021/12/29 20:50:40;;;;;;;22.98;8.57;;;;;;;7.12;77.99;92188.69;4879498;29;20036;-77
2021/12/29 20:53:05;;;;;;;9.27;4.53;;;;;;;7.05;78.27;92217.63;4893401;29;20068;-77
2021/12/29 20:55:31;;;;;;;2.28;1.20;;;;;;;7.02;77.84;92211.13;4884814;29;20031;-77
2021/12/29 20:57:57;;;;;;;1.23;0.80;;;;;;;7.03;77.98;92217.91;4880943;29;20049;-77
2021/12/29 21:00:24;;;;;;;2.22;1.40;;;;;;;7.02;78.00;92237.16;4898141;29;20037;-77
2021/12/29 21:02:51;;;;;;;1.83;1.10;;;;;;;6.97;78.15;92234.59;4881120;29;20248;-77
2021/12/29 21:05:17;;;;;;;9.20;1.15;;;;;;;6.90;78.81;92222.94;4898007;29;20056;-77
2021/12/29 21:07:43;;;;;;;2.13;1.10;;;;;;;6.86;79.11;92233.84;4878898;29;20531;-77
2021/12/29 21:10:15;;;;;;;4.18;1.67;;;;;;;6.81;78.87;92239.09;4881234;29;20033;-77
2021/12/29 21:12:41;;;;;;;4.60;2.30;;;;;;;6.76;79.46;92238.38;4897483;29;20032;-77
2021/12/29 21:15:10;;;;;;;2.80;1.40;;;;;;;6.68;79.36;92226.69;4897735;29;20394;-77
2021/12/29 21:17:37;;;;;;;1.98;1.02;;;;;;;6.63;79.17;92217.06;4897058;29;20036;-77
2021/12/29 21:20:07;;;;;;;1.25;0.93;;;;;;;6.67;79.47;92222.53;4896615;29;20021;-78
2021/12/29 21:22:34;;;;;;;1.33;0.98;;;;;;;6.68;79.83;92205.88;4896709;29;20542;-77
2021/12/29 21:25:00;;;;;;;0.90;0.68;;;;;;;6.65;79.24;92211.63;4880166;29;20044;-77
2021/12/29 21:27:26;;;;;;;0.75;0.75;;;;;;;6.73;80.09;92224.03;4896820;29;20036;-77
2021/12/29 21:29:51;;;;;;;1.83;1.00;;;;;;;7.05;79.73;92225.44;4867409;29;20048;-78
2021/12/29 21:32:17;;;;;;;2.67;1.50;;;;;;;7.10;78.87;92233.22;4887537;29;20517;-78
2021/12/29 21:34:45;;;;;;;3.47;1.90;;;;;;;6.97;79.05;92223.41;4901293;29;20032;-78
2021/12/29 21:37:11;;;;;;;2.97;1.45;;;;;;;6.94;79.25;92239.56;4886217;29;20044;-78
2021/12/29 21:39:37;;;;;;;1.95;1.00;;;;;;;7.01;79.70;92251.22;4902967;29;20040;-78
2021/12/29 21:42:03;;;;;;;2.47;1.40;;;;;;;6.94;79.43;92270.78;4904968;29;20055;-77
2021/12/29 21:44:28;;;;;;;4.40;1.70;;;;;;;6.87;79.68;92271.84;4906930;29;20059;-77
2021/12/29 21:46:54;;;;;;;2.60;1.40;;;;;;;6.81;81.31;92261.75;4905909;29;20065;-78
2021/12/29 21:49:20;;;;;;;2.58;1.23;;;;;;;6.80;81.30;92268.78;4885613;29;20041;-78
2021/12/29 21:51:45;;;;;;;4.20;1.85;;;;;;;6.76;81.47;92283.38;4896745;29;20526;-78
2021/12/29 21:54:11;;;;;;;2.47;1.60;;;;;;;6.68;81.41;92289.88;4888667;29;20025;-77
2021/12/29 21:56:37;;;;;;;2.00;1.27;;;;;;;6.58;81.21;92294.38;4889215;29;20043;-78
2021/12/29 21:59:03;;;;;;;2.00;1.13;;;;;;;6.50;81.13;92281.91;4888771;29;20033;-78
2021/12/29 22:05:16;;;;;;;1.45;0.90;;;;;;;6.09;82.18;92262.00;4898078;29;20060;-91
2021/12/29 22:08:38;;;;;;;2.13;1.20;;;;;;;6.01;83.05;92252.94;4899625;29;20049;-91
2021/12/29 22:11:34;;;;;;;1.60;1.10;;;;;;;6.08;82.92;92239.66;4899374;29;20051;-90
2021/12/29 22:14:16;;;;;;;0.63;0.63;;;;;;;6.58;82.69;92279.53;4882969;29;20061;-91
2021/12/29 22:17:25;;;;;;;1.02;0.70;;;;;;;6.68;82.46;92268.28;4868711;29;20070;-91
2021/12/29 22:20:35;;;;;;;0.60;0.60;;;;;;;6.61;81.45;92247.00;4888340;29;20077;-91
2021/12/29 22:27:14;;;;;;;;;;;;;;;;;;;;;
2021/12/29 22:30:00;;;;;;;2.83;0.80;;;;;;;6.54;81.50;92256.91;4888375;29;20096;-90
2021/12/29 22:33:06;;;;;;;1.17;0.80;;;;;;;6.15;82.00;92216.00;4898366;29;20056;-93
2021/12/29 22:36:29;;;;;;;;;;;;;;;;;;;;;
2021/12/29 22:39:49;;;;;;;2.05;1.13;;;;;;;6.46;82.25;92266.84;4910262;29;20041;-91
2021/12/29 22:42:50;;;;;;;1.15;0.80;;;;;;;6.10;81.91;92210.78;4899062;29;20056;-91
2021/12/29 22:46:04;;;;;;;;;;;;;;;;;;;;;
2021/12/29 22:49:11;;;;;;;1.80;1.00;;;;;;;6.29;81.38;92261.16;4899339;29;20040;-91
2021/12/29 22:52:35;;;;;;;;;;;;;;;;;;;;;
2021/12/29 22:55:35;;;;;;;2.15;1.15;;;;;;;6.52;81.88;92290.22;4898464;29;20053;-90
2021/12/29 22:58:44;;;;;;;2.05;1.10;;;;;;;6.05;81.20;92251.34;4880313;29;20096;-91
2021/12/29 23:02:03;;;;;;;2.38;1.20;;;;;;;5.99;81.22;92262.00;4886262;29;20398;-90
2021/12/29 23:04:55;;;;;;;2.05;1.20;;;;;;;5.89;81.64;92256.81;4879068;29;20052;-91
2021/12/29 23:08:05;;;;;;;;;;;;;;;;;;;;;